sensor_id;sensor_type;location;lat;lon;timestamp;P1;durP1;ratioP1;P2;durP2;ratioP2
20179;SDS011;10249;48.900;9.090;2023-12-28T00:02:15;14.50;;;13.80;;
20179;SDS011;10249;48.900;9.090;2023-12-28T00:04:42;14.40;;;13.80;;
20179;SDS011;10249;48.900;9.090;2023-12-28T00:07:11;15.20;;;14.50;;
20179;SDS011;10249;48.900;9.090;2023-12-28T00:09:38;14.77;;;14.07;;
20179;SDS011;10249;48.900;9.090;2023-12-28T00:12:06;14.70;;;14.00;;
20179;SDS011;10249;48.900;9.090;2023-12-28T00:14:33;14.77;;;14.07;;
20179;SDS011;10249;48.900;9.090;2023-12-28T00:17:00;14.97;;;14.27;;
20179;SDS011;10249;48.900;9.090;2023-12-28T00:19:27;14.90;;;14.20;;
20179;SDS011;10249;48.900;9.090;2023-12-28T00:21:54;14.87;;;14.17;;
20179;SDS011;10249;48.900;9.090;2023-12-28T00:24:22;14.80;;;14.10;;
20179;SDS011;10249;48.900;9.090;2023-12-28T00:26:49;14.77;;;14.07;;
20179;SDS011;10249;48.900;9.090;2023-12-28T00:29:16;14.77;;;14.07;;
20179;SDS011;10249;48.900;9.090;2023-12-28T00:31:44;14.70;;;14.00;;
20179;SDS011;10249;48.900;9.090;2023-12-28T00:34:11;14.60;;;13.90;;
20179;SDS011;10249;48.900;9.090;2023-12-28T00:36:38;14.70;;;14.00;;
20179;SDS011;10249;48.900;9.090;2023-12-28T00:39:05;14.93;;;14.23;;
20179;SDS011;10249;48.900;9.090;2023-12-28T00:41:34;14.80;;;14.10;;
20179;SDS011;10249;48.900;9.090;2023-12-28T00:44:01;14.63;;;13.93;;
20179;SDS011;10249;48.900;9.090;2023-12-28T00:46:30;14.67;;;13.97;;
20179;SDS011;10249;48.900;9.090;2023-12-28T00:48:57;14.73;;;14.03;;
20179;SDS011;10249;48.900;9.090;2023-12-28T00:51:24;14.90;;;14.20;;
20179;SDS011;10249;48.900;9.090;2023-12-28T00:53:51;14.77;;;14.07;;
20179;SDS011;10249;48.900;9.090;2023-12-28T00:56:18;15.00;;;14.30;;
20179;SDS011;10249;48.900;9.090;2023-12-28T00:58:47;15.03;;;14.30;;
20179;SDS011;10249;48.900;9.090;2023-12-28T01:01:14;14.57;;;13.97;;
20179;SDS011;10249;48.900;9.090;2023-12-28T01:03:42;15.33;;;14.60;;
20179;SDS011;10249;48.900;9.090;2023-12-28T01:06:09;14.80;;;14.10;;
20179;SDS011;10249;48.900;9.090;2023-12-28T01:08:36;15.20;;;14.50;;
20179;SDS011;10249;48.900;9.090;2023-12-28T01:11:03;14.70;;;14.10;;
20179;SDS011;10249;48.900;9.090;2023-12-28T01:13:30;14.70;;;14.00;;
20179;SDS011;10249;48.900;9.090;2023-12-28T01:15:59;14.77;;;14.07;;
20179;SDS011;10249;48.900;9.090;2023-12-28T01:18:26;14.80;;;14.10;;
20179;SDS011;10249;48.900;9.090;2023-12-28T01:20:53;14.70;;;14.00;;
20179;SDS011;10249;48.900;9.090;2023-12-28T01:23:21;14.83;;;14.13;;
20179;SDS011;10249;48.900;9.090;2023-12-28T01:25:48;14.63;;;13.93;;
20179;SDS011;10249;48.900;9.090;2023-12-28T01:28:15;14.67;;;13.97;;
20179;SDS011;10249;48.900;9.090;2023-12-28T01:30:42;14.30;;;13.70;;
20179;SDS011;10249;48.900;9.090;2023-12-28T01:33:11;14.50;;;13.90;;
20179;SDS011;10249;48.900;9.090;2023-12-28T01:35:38;14.23;;;13.63;;
20179;SDS011;10249;48.900;9.090;2023-12-28T01:38:05;15.00;;;14.30;;
20179;SDS011;10249;48.900;9.090;2023-12-28T01:40:32;14.77;;;14.07;;
20179;SDS011;10249;48.900;9.090;2023-12-28T01:42:59;14.60;;;13.90;;
20179;SDS011;10249;48.900;9.090;2023-12-28T01:45:26;14.63;;;13.97;;
20179;SDS011;10249;48.900;9.090;2023-12-28T01:47:53;14.47;;;13.80;;
20179;SDS011;10249;48.900;9.090;2023-12-28T01:50:23;14.40;;;13.80;;
20179;SDS011;10249;48.900;9.090;2023-12-28T01:52:52;14.40;;;13.80;;
20179;SDS011;10249;48.900;9.090;2023-12-28T01:55:21;14.30;;;13.70;;
20179;SDS011;10249;48.900;9.090;2023-12-28T01:57:48;14.33;;;13.73;;
20179;SDS011;10249;48.900;9.090;2023-12-28T02:00:15;14.40;;;13.80;;
20179;SDS011;10249;48.900;9.090;2023-12-28T02:02:42;14.30;;;13.70;;
20179;SDS011;10249;48.900;9.090;2023-12-28T02:05:10;14.57;;;13.97;;
20179;SDS011;10249;48.900;9.090;2023-12-28T02:07:39;14.40;;;13.80;;
20179;SDS011;10249;48.900;9.090;2023-12-28T02:10:07;14.30;;;13.70;;
20179;SDS011;10249;48.900;9.090;2023-12-28T02:12:34;14.40;;;13.80;;
20179;SDS011;10249;48.900;9.090;2023-12-28T02:15:01;14.27;;;13.67;;
20179;SDS011;10249;48.900;9.090;2023-12-28T02:17:30;14.95;;;14.25;;
20179;SDS011;10249;48.900;9.090;2023-12-28T02:20:00;14.50;;;13.90;;
20179;SDS011;10249;48.900;9.090;2023-12-28T02:22:31;14.47;;;13.87;;
20179;SDS011;10249;48.900;9.090;2023-12-28T02:25:05;14.80;;;14.10;;
20179;SDS011;10249;48.900;9.090;2023-12-28T02:27:32;14.53;;;13.93;;
20179;SDS011;10249;48.900;9.090;2023-12-28T02:30:00;14.60;;;13.90;;
20179;SDS011;10249;48.900;9.090;2023-12-28T02:32:31;15.00;;;14.30;;
20179;SDS011;10249;48.900;9.090;2023-12-28T02:35:01;14.40;;;13.80;;
20179;SDS011;10249;48.900;9.090;2023-12-28T02:37:33;14.60;;;14.00;;
20179;SDS011;10249;48.900;9.090;2023-12-28T02:40:01;14.43;;;13.83;;
20179;SDS011;10249;48.900;9.090;2023-12-28T02:42:30;14.50;;;13.87;;
20179;SDS011;10249;48.900;9.090;2023-12-28T02:44:57;14.50;;;13.90;;
20179;SDS011;10249;48.900;9.090;2023-12-28T02:47:24;14.47;;;13.87;;
20179;SDS011;10249;48.900;9.090;2023-12-28T02:49:51;14.50;;;13.90;;
20179;SDS011;10249;48.900;9.090;2023-12-28T02:52:18;14.60;;;14.00;;
20179;SDS011;10249;48.900;9.090;2023-12-28T02:54:45;14.73;;;14.10;;
20179;SDS011;10249;48.900;9.090;2023-12-28T02:57:12;14.27;;;13.67;;
20179;SDS011;10249;48.900;9.090;2023-12-28T02:59:44;14.30;;;13.70;;
20179;SDS011;10249;48.900;9.090;2023-12-28T03:02:11;14.67;;;14.00;;
20179;SDS011;10249;48.900;9.090;2023-12-28T03:04:39;14.70;;;14.00;;
20179;SDS011;10249;48.900;9.090;2023-12-28T03:07:07;20.73;;;16.30;;
20179;SDS011;10249;48.900;9.090;2023-12-28T03:09:34;14.70;;;14.00;;
20179;SDS011;10249;48.900;9.090;2023-12-28T03:12:03;14.83;;;14.13;;
20179;SDS011;10249;48.900;9.090;2023-12-28T03:14:31;14.70;;;14.00;;
20179;SDS011;10249;48.900;9.090;2023-12-28T03:17:00;14.60;;;14.00;;
20179;SDS011;10249;48.900;9.090;2023-12-28T03:19:27;14.50;;;13.90;;
20179;SDS011;10249;48.900;9.090;2023-12-28T03:21:54;14.40;;;13.80;;
20179;SDS011;10249;48.900;9.090;2023-12-28T03:24:21;14.47;;;13.87;;
20179;SDS011;10249;48.900;9.090;2023-12-28T03:26:48;14.33;;;13.73;;
20179;SDS011;10249;48.900;9.090;2023-12-28T03:29:16;14.80;;;14.10;;
20179;SDS011;10249;48.900;9.090;2023-12-28T03:31:43;14.47;;;13.87;;
20179;SDS011;10249;48.900;9.090;2023-12-28T03:34:12;14.90;;;14.20;;
20179;SDS011;10249;48.900;9.090;2023-12-28T03:36:39;14.77;;;14.07;;
20179;SDS011;10249;48.900;9.090;2023-12-28T03:39:07;14.77;;;14.07;;
20179;SDS011;10249;48.900;9.090;2023-12-28T03:41:34;14.73;;;14.03;;
20179;SDS011;10249;48.900;9.090;2023-12-28T03:44:01;14.80;;;14.10;;
20179;SDS011;10249;48.900;9.090;2023-12-28T03:46:28;14.60;;;13.90;;
20179;SDS011;10249;48.900;9.090;2023-12-28T03:48:55;14.70;;;14.00;;
20179;SDS011;10249;48.900;9.090;2023-12-28T03:51:24;14.80;;;14.10;;
20179;SDS011;10249;48.900;9.090;2023-12-28T03:53:51;14.60;;;13.90;;
20179;SDS011;10249;48.900;9.090;2023-12-28T03:56:19;14.73;;;14.03;;
20179;SDS011;10249;48.900;9.090;2023-12-28T03:58:46;15.00;;;14.30;;
20179;SDS011;10249;48.900;9.090;2023-12-28T04:01:13;14.60;;;13.90;;
20179;SDS011;10249;48.900;9.090;2023-12-28T04:03:40;14.70;;;14.00;;
20179;SDS011;10249;48.900;9.090;2023-12-28T04:06:08;14.80;;;14.10;;
20179;SDS011;10249;48.900;9.090;2023-12-28T04:08:36;14.83;;;14.13;;
20179;SDS011;10249;48.900;9.090;2023-12-28T04:11:03;14.90;;;14.20;;
20179;SDS011;10249;48.900;9.090;2023-12-28T04:13:31;14.83;;;14.13;;
20179;SDS011;10249;48.900;9.090;2023-12-28T04:15:58;14.73;;;14.03;;
20179;SDS011;10249;48.900;9.090;2023-12-28T04:18:25;14.90;;;14.20;;
20179;SDS011;10249;48.900;9.090;2023-12-28T04:20:53;15.10;;;14.40;;
20179;SDS011;10249;48.900;9.090;2023-12-28T04:23:20;15.40;;;14.70;;
20179;SDS011;10249;48.900;9.090;2023-12-28T04:25:48;15.03;;;14.33;;
20179;SDS011;10249;48.900;9.090;2023-12-28T04:28:15;15.13;;;14.43;;
20179;SDS011;10249;48.900;9.090;2023-12-28T04:30:43;15.03;;;14.33;;
20179;SDS011;10249;48.900;9.090;2023-12-28T04:33:10;15.17;;;14.47;;
20179;SDS011;10249;48.900;9.090;2023-12-28T04:35:37;15.30;;;14.60;;
20179;SDS011;10249;48.900;9.090;2023-12-28T04:38:04;14.93;;;14.23;;
20179;SDS011;10249;48.900;9.090;2023-12-28T04:40:32;15.00;;;14.30;;
20179;SDS011;10249;48.900;9.090;2023-12-28T04:43:01;15.10;;;14.40;;
20179;SDS011;10249;48.900;9.090;2023-12-28T04:45:29;15.20;;;14.50;;
20179;SDS011;10249;48.900;9.090;2023-12-28T04:47:56;15.00;;;14.30;;
20179;SDS011;10249;48.900;9.090;2023-12-28T04:50:23;15.10;;;14.40;;
20179;SDS011;10249;48.900;9.090;2023-12-28T04:52:50;15.00;;;14.30;;
20179;SDS011;10249;48.900;9.090;2023-12-28T04:55:17;15.00;;;14.30;;
20179;SDS011;10249;48.900;9.090;2023-12-28T04:57:45;15.20;;;14.50;;
20179;SDS011;10249;48.900;9.090;2023-12-28T05:00:14;15.17;;;14.47;;
20179;SDS011;10249;48.900;9.090;2023-12-28T05:02:41;15.23;;;14.53;;
20179;SDS011;10249;48.900;9.090;2023-12-28T05:05:11;15.30;;;14.60;;
20179;SDS011;10249;48.900;9.090;2023-12-28T05:07:38;15.20;;;14.50;;
20179;SDS011;10249;48.900;9.090;2023-12-28T05:10:05;15.50;;;14.70;;
20179;SDS011;10249;48.900;9.090;2023-12-28T05:12:33;15.50;;;14.70;;
20179;SDS011;10249;48.900;9.090;2023-12-28T05:15:00;15.53;;;14.73;;
20179;SDS011;10249;48.900;9.090;2023-12-28T05:17:28;15.20;;;14.50;;
20179;SDS011;10249;48.900;9.090;2023-12-28T05:19:55;15.50;;;14.70;;
20179;SDS011;10249;48.900;9.090;2023-12-28T05:22:22;15.23;;;14.53;;
20179;SDS011;10249;48.900;9.090;2023-12-28T05:24:49;15.60;;;14.80;;
20179;SDS011;10249;48.900;9.090;2023-12-28T05:27:16;15.47;;;14.67;;
20179;SDS011;10249;48.900;9.090;2023-12-28T05:29:44;14.80;;;14.10;;
20179;SDS011;10249;48.900;9.090;2023-12-28T05:32:11;14.77;;;14.07;;
20179;SDS011;10249;48.900;9.090;2023-12-28T05:34:39;14.50;;;13.80;;
20179;SDS011;10249;48.900;9.090;2023-12-28T05:37:06;14.70;;;14.00;;
20179;SDS011;10249;48.900;9.090;2023-12-28T05:39:33;14.90;;;14.20;;
20179;SDS011;10249;48.900;9.090;2023-12-28T05:42:00;14.50;;;13.80;;
20179;SDS011;10249;48.900;9.090;2023-12-28T05:44:27;14.50;;;13.80;;
20179;SDS011;10249;48.900;9.090;2023-12-28T05:46:55;14.47;;;13.77;;
20179;SDS011;10249;48.900;9.090;2023-12-28T05:49:22;14.23;;;13.60;;
20179;SDS011;10249;48.900;9.090;2023-12-28T05:51:51;14.10;;;13.50;;
20179;SDS011;10249;48.900;9.090;2023-12-28T05:54:19;14.07;;;13.47;;
20179;SDS011;10249;48.900;9.090;2023-12-28T05:56:46;13.90;;;13.30;;
20179;SDS011;10249;48.900;9.090;2023-12-28T05:59:13;14.20;;;13.50;;
20179;SDS011;10249;48.900;9.090;2023-12-28T06:01:43;13.90;;;13.30;;
20179;SDS011;10249;48.900;9.090;2023-12-28T06:04:10;13.80;;;13.20;;
20179;SDS011;10249;48.900;9.090;2023-12-28T06:06:37;13.90;;;13.30;;
20179;SDS011;10249;48.900;9.090;2023-12-28T06:09:06;14.00;;;13.40;;
20179;SDS011;10249;48.900;9.090;2023-12-28T06:11:33;13.60;;;13.00;;
20179;SDS011;10249;48.900;9.090;2023-12-28T06:14:01;13.67;;;13.07;;
20179;SDS011;10249;48.900;9.090;2023-12-28T06:16:28;13.47;;;12.87;;
20179;SDS011;10249;48.900;9.090;2023-12-28T06:18:58;13.30;;;12.70;;
20179;SDS011;10249;48.900;9.090;2023-12-28T06:21:26;12.23;;;11.73;;
20179;SDS011;10249;48.900;9.090;2023-12-28T06:23:53;12.00;;;11.50;;
20179;SDS011;10249;48.900;9.090;2023-12-28T06:26:22;11.83;;;11.33;;
20179;SDS011;10249;48.900;9.090;2023-12-28T06:28:49;11.40;;;11.00;;
20179;SDS011;10249;48.900;9.090;2023-12-28T06:31:16;11.30;;;10.90;;
20179;SDS011;10249;48.900;9.090;2023-12-28T06:33:43;11.33;;;10.93;;
20179;SDS011;10249;48.900;9.090;2023-12-28T06:36:11;11.70;;;11.20;;
20179;SDS011;10249;48.900;9.090;2023-12-28T06:38:38;11.80;;;11.30;;
20179;SDS011;10249;48.900;9.090;2023-12-28T06:41:11;11.93;;;11.43;;
20179;SDS011;10249;48.900;9.090;2023-12-28T06:43:40;12.00;;;11.50;;
20179;SDS011;10249;48.900;9.090;2023-12-28T06:46:07;12.00;;;11.50;;
20179;SDS011;10249;48.900;9.090;2023-12-28T06:48:34;12.17;;;11.67;;
20179;SDS011;10249;48.900;9.090;2023-12-28T06:51:03;12.13;;;11.63;;
20179;SDS011;10249;48.900;9.090;2023-12-28T06:53:30;11.87;;;11.37;;
20179;SDS011;10249;48.900;9.090;2023-12-28T06:55:57;11.73;;;11.23;;
20179;SDS011;10249;48.900;9.090;2023-12-28T06:58:24;12.13;;;11.63;;
20179;SDS011;10249;48.900;9.090;2023-12-28T07:00:52;11.87;;;11.37;;
20179;SDS011;10249;48.900;9.090;2023-12-28T07:03:22;11.60;;;11.10;;
20179;SDS011;10249;48.900;9.090;2023-12-28T07:05:50;11.73;;;11.23;;
20179;SDS011;10249;48.900;9.090;2023-12-28T07:08:17;11.60;;;11.10;;
20179;SDS011;10249;48.900;9.090;2023-12-28T07:10:45;11.30;;;10.90;;
20179;SDS011;10249;48.900;9.090;2023-12-28T07:13:12;11.20;;;10.80;;
20179;SDS011;10249;48.900;9.090;2023-12-28T07:15:39;10.80;;;10.40;;
20179;SDS011;10249;48.900;9.090;2023-12-28T07:18:07;10.50;;;10.10;;
20179;SDS011;10249;48.900;9.090;2023-12-28T07:20:34;10.27;;;9.87;;
20179;SDS011;10249;48.900;9.090;2023-12-28T07:23:01;9.90;;;9.60;;
20179;SDS011;10249;48.900;9.090;2023-12-28T07:25:29;9.80;;;9.50;;
20179;SDS011;10249;48.900;9.090;2023-12-28T07:27:56;10.20;;;9.80;;
20179;SDS011;10249;48.900;9.090;2023-12-28T07:30:23;10.83;;;10.43;;
20179;SDS011;10249;48.900;9.090;2023-12-28T07:32:51;9.20;;;8.90;;
20179;SDS011;10249;48.900;9.090;2023-12-28T07:35:19;8.77;;;8.47;;
20179;SDS011;10249;48.900;9.090;2023-12-28T07:37:46;9.20;;;8.60;;
20179;SDS011;10249;48.900;9.090;2023-12-28T07:40:14;8.83;;;8.53;;
20179;SDS011;10249;48.900;9.090;2023-12-28T07:42:42;8.77;;;8.47;;
20179;SDS011;10249;48.900;9.090;2023-12-28T07:45:09;8.60;;;8.30;;
20179;SDS011;10249;48.900;9.090;2023-12-28T07:47:36;8.80;;;8.50;;
20179;SDS011;10249;48.900;9.090;2023-12-28T07:50:04;8.50;;;8.20;;
20179;SDS011;10249;48.900;9.090;2023-12-28T07:52:32;8.73;;;8.43;;
20179;SDS011;10249;48.900;9.090;2023-12-28T07:55:00;8.80;;;8.50;;
20179;SDS011;10249;48.900;9.090;2023-12-28T07:57:27;8.20;;;7.90;;
20179;SDS011;10249;48.900;9.090;2023-12-28T07:59:54;8.90;;;8.60;;
20179;SDS011;10249;48.900;9.090;2023-12-28T08:02:21;9.00;;;8.70;;
20179;SDS011;10249;48.900;9.090;2023-12-28T08:04:48;8.30;;;8.00;;
20179;SDS011;10249;48.900;9.090;2023-12-28T08:07:15;8.40;;;8.10;;
20179;SDS011;10249;48.900;9.090;2023-12-28T08:09:44;9.13;;;8.80;;
20179;SDS011;10249;48.900;9.090;2023-12-28T08:12:11;8.40;;;8.10;;
20179;SDS011;10249;48.900;9.090;2023-12-28T08:14:38;8.30;;;8.00;;
20179;SDS011;10249;48.900;9.090;2023-12-28T08:17:05;7.97;;;7.77;;
20179;SDS011;10249;48.900;9.090;2023-12-28T08:19:33;8.10;;;7.80;;
20179;SDS011;10249;48.900;9.090;2023-12-28T08:22:00;8.30;;;8.00;;
20179;SDS011;10249;48.900;9.090;2023-12-28T08:24:27;8.17;;;7.87;;
20179;SDS011;10249;48.900;9.090;2023-12-28T08:26:56;8.20;;;7.90;;
20179;SDS011;10249;48.900;9.090;2023-12-28T08:29:25;8.30;;;8.00;;
20179;SDS011;10249;48.900;9.090;2023-12-28T08:31:52;8.00;;;7.80;;
20179;SDS011;10249;48.900;9.090;2023-12-28T08:34:20;7.90;;;7.70;;
20179;SDS011;10249;48.900;9.090;2023-12-28T08:36:47;7.70;;;7.50;;
20179;SDS011;10249;48.900;9.090;2023-12-28T08:39:14;8.07;;;7.87;;
20179;SDS011;10249;48.900;9.090;2023-12-28T08:41:41;8.50;;;8.20;;
20179;SDS011;10249;48.900;9.090;2023-12-28T08:44:10;8.70;;;8.40;;
20179;SDS011;10249;48.900;9.090;2023-12-28T08:46:37;9.00;;;8.70;;
20179;SDS011;10249;48.900;9.090;2023-12-28T08:49:04;8.90;;;8.60;;
20179;SDS011;10249;48.900;9.090;2023-12-28T08:51:31;9.50;;;9.20;;
20179;SDS011;10249;48.900;9.090;2023-12-28T08:53:58;9.60;;;9.30;;
20179;SDS011;10249;48.900;9.090;2023-12-28T08:56:25;9.40;;;9.10;;
20179;SDS011;10249;48.900;9.090;2023-12-28T08:58:52;9.30;;;9.00;;
20179;SDS011;10249;48.900;9.090;2023-12-28T09:01:21;9.13;;;8.83;;
20179;SDS011;10249;48.900;9.090;2023-12-28T09:03:50;9.30;;;9.00;;
20179;SDS011;10249;48.900;9.090;2023-12-28T09:06:18;9.17;;;8.87;;
20179;SDS011;10249;48.900;9.090;2023-12-28T09:08:45;9.20;;;8.90;;
20179;SDS011;10249;48.900;9.090;2023-12-28T09:11:12;9.30;;;9.00;;
20179;SDS011;10249;48.900;9.090;2023-12-28T09:13:40;9.27;;;8.97;;
20179;SDS011;10249;48.900;9.090;2023-12-28T09:16:08;9.20;;;8.90;;
20179;SDS011;10249;48.900;9.090;2023-12-28T09:18:37;9.50;;;9.20;;
20179;SDS011;10249;48.900;9.090;2023-12-28T09:21:04;9.50;;;9.20;;
20179;SDS011;10249;48.900;9.090;2023-12-28T09:23:31;9.80;;;9.50;;
20179;SDS011;10249;48.900;9.090;2023-12-28T09:25:58;9.20;;;8.90;;
20179;SDS011;10249;48.900;9.090;2023-12-28T09:28:26;9.83;;;9.53;;
20179;SDS011;10249;48.900;9.090;2023-12-28T09:30:53;9.20;;;8.90;;
20179;SDS011;10249;48.900;9.090;2023-12-28T09:33:20;9.40;;;9.10;;
20179;SDS011;10249;48.900;9.090;2023-12-28T09:35:49;9.40;;;9.10;;
20179;SDS011;10249;48.900;9.090;2023-12-28T09:38:16;9.10;;;8.80;;
20179;SDS011;10249;48.900;9.090;2023-12-28T09:40:43;9.30;;;9.00;;
20179;SDS011;10249;48.900;9.090;2023-12-28T09:43:13;9.40;;;9.10;;
20179;SDS011;10249;48.900;9.090;2023-12-28T09:45:40;9.40;;;9.10;;
20179;SDS011;10249;48.900;9.090;2023-12-28T09:48:07;9.77;;;9.47;;
20179;SDS011;10249;48.900;9.090;2023-12-28T09:50:34;9.70;;;9.40;;
20179;SDS011;10249;48.900;9.090;2023-12-28T09:53:03;9.57;;;9.27;;
20179;SDS011;10249;48.900;9.090;2023-12-28T09:55:30;9.30;;;9.00;;
20179;SDS011;10249;48.900;9.090;2023-12-28T09:57:57;9.30;;;9.00;;
20179;SDS011;10249;48.900;9.090;2023-12-28T10:00:24;9.00;;;8.70;;
20179;SDS011;10249;48.900;9.090;2023-12-28T10:02:51;9.20;;;8.90;;
20179;SDS011;10249;48.900;9.090;2023-12-28T10:05:19;9.00;;;8.70;;
20179;SDS011;10249;48.900;9.090;2023-12-28T10:07:47;8.80;;;8.50;;
20179;SDS011;10249;48.900;9.090;2023-12-28T10:10:15;8.50;;;8.20;;
20179;SDS011;10249;48.900;9.090;2023-12-28T10:12:45;8.20;;;7.90;;
20179;SDS011;10249;48.900;9.090;2023-12-28T10:15:12;8.37;;;8.07;;
20179;SDS011;10249;48.900;9.090;2023-12-28T10:17:39;8.47;;;8.17;;
20179;SDS011;10249;48.900;9.090;2023-12-28T10:20:07;8.20;;;7.90;;
20179;SDS011;10249;48.900;9.090;2023-12-28T10:22:35;8.47;;;8.17;;
20179;SDS011;10249;48.900;9.090;2023-12-28T10:25:03;7.90;;;7.70;;
20179;SDS011;10249;48.900;9.090;2023-12-28T10:27:31;8.33;;;8.03;;
20179;SDS011;10249;48.900;9.090;2023-12-28T10:29:59;8.40;;;8.10;;
20179;SDS011;10249;48.900;9.090;2023-12-28T10:32:27;8.97;;;8.67;;
20179;SDS011;10249;48.900;9.090;2023-12-28T10:34:54;9.27;;;8.97;;
20179;SDS011;10249;48.900;9.090;2023-12-28T10:37:21;10.10;;;9.80;;
20179;SDS011;10249;48.900;9.090;2023-12-28T10:39:50;10.53;;;10.13;;
20179;SDS011;10249;48.900;9.090;2023-12-28T10:42:22;10.07;;;9.77;;
20179;SDS011;10249;48.900;9.090;2023-12-28T10:44:58;10.20;;;9.90;;
20179;SDS011;10249;48.900;9.090;2023-12-28T10:47:28;10.50;;;10.10;;
20179;SDS011;10249;48.900;9.090;2023-12-28T10:49:58;9.80;;;9.50;;
20179;SDS011;10249;48.900;9.090;2023-12-28T10:52:27;10.07;;;9.77;;
20179;SDS011;10249;48.900;9.090;2023-12-28T10:54:57;10.10;;;9.80;;
20179;SDS011;10249;48.900;9.090;2023-12-28T10:57:29;10.30;;;10.00;;
20179;SDS011;10249;48.900;9.090;2023-12-28T11:00:02;10.30;;;9.90;;
20179;SDS011;10249;48.900;9.090;2023-12-28T11:02:33;10.67;;;10.27;;
20179;SDS011;10249;48.900;9.090;2023-12-28T11:05:05;10.60;;;10.20;;
20179;SDS011;10249;48.900;9.090;2023-12-28T11:07:32;10.80;;;10.40;;
20179;SDS011;10249;48.900;9.090;2023-12-28T11:10:03;10.90;;;10.50;;
20179;SDS011;10249;48.900;9.090;2023-12-28T11:12:32;10.50;;;10.10;;
20179;SDS011;10249;48.900;9.090;2023-12-28T11:14:59;10.70;;;10.30;;
20179;SDS011;10249;48.900;9.090;2023-12-28T11:17:31;10.60;;;10.20;;
20179;SDS011;10249;48.900;9.090;2023-12-28T11:19:58;10.23;;;9.83;;
20179;SDS011;10249;48.900;9.090;2023-12-28T11:22:26;10.10;;;9.70;;
20179;SDS011;10249;48.900;9.090;2023-12-28T11:24:54;10.33;;;9.93;;
20179;SDS011;10249;48.900;9.090;2023-12-28T11:27:23;10.73;;;10.33;;
20179;SDS011;10249;48.900;9.090;2023-12-28T11:29:51;10.10;;;9.80;;
20179;SDS011;10249;48.900;9.090;2023-12-28T11:32:19;10.27;;;9.87;;
20179;SDS011;10249;48.900;9.090;2023-12-28T11:34:48;10.60;;;10.20;;
20179;SDS011;10249;48.900;9.090;2023-12-28T11:37:23;10.20;;;9.90;;
20179;SDS011;10249;48.900;9.090;2023-12-28T11:39:50;9.83;;;9.53;;
20179;SDS011;10249;48.900;9.090;2023-12-28T11:42:19;10.33;;;10.03;;
20179;SDS011;10249;48.900;9.090;2023-12-28T11:44:47;10.20;;;9.90;;
20179;SDS011;10249;48.900;9.090;2023-12-28T11:47:17;10.03;;;9.73;;
20179;SDS011;10249;48.900;9.090;2023-12-28T11:49:49;10.20;;;9.90;;
20179;SDS011;10249;48.900;9.090;2023-12-28T11:52:24;9.80;;;9.50;;
20179;SDS011;10249;48.900;9.090;2023-12-28T11:54:51;10.00;;;9.70;;
20179;SDS011;10249;48.900;9.090;2023-12-28T11:57:19;9.70;;;9.40;;
20179;SDS011;10249;48.900;9.090;2023-12-28T11:59:47;9.90;;;9.60;;
20179;SDS011;10249;48.900;9.090;2023-12-28T12:02:15;9.80;;;9.50;;
20179;SDS011;10249;48.900;9.090;2023-12-28T12:04:42;9.70;;;9.40;;
20179;SDS011;10249;48.900;9.090;2023-12-28T12:07:11;9.57;;;9.27;;
20179;SDS011;10249;48.900;9.090;2023-12-28T12:09:38;9.40;;;9.10;;
20179;SDS011;10249;48.900;9.090;2023-12-28T12:12:06;9.10;;;8.80;;
20179;SDS011;10249;48.900;9.090;2023-12-28T12:14:33;9.37;;;9.07;;
20179;SDS011;10249;48.900;9.090;2023-12-28T12:17:01;9.00;;;8.70;;
20179;SDS011;10249;48.900;9.090;2023-12-28T12:19:28;9.00;;;8.70;;
20179;SDS011;10249;48.900;9.090;2023-12-28T12:21:56;9.30;;;9.00;;
20179;SDS011;10249;48.900;9.090;2023-12-28T12:24:24;9.10;;;8.80;;
20179;SDS011;10249;48.900;9.090;2023-12-28T12:26:52;9.40;;;9.10;;
20179;SDS011;10249;48.900;9.090;2023-12-28T12:29:19;9.10;;;8.80;;
20179;SDS011;10249;48.900;9.090;2023-12-28T12:31:47;9.00;;;8.70;;
20179;SDS011;10249;48.900;9.090;2023-12-28T12:34:15;8.90;;;8.60;;
20179;SDS011;10249;48.900;9.090;2023-12-28T12:36:42;9.07;;;8.77;;
20179;SDS011;10249;48.900;9.090;2023-12-28T12:39:09;9.03;;;8.73;;
20179;SDS011;10249;48.900;9.090;2023-12-28T12:41:38;9.00;;;8.70;;
20179;SDS011;10249;48.900;9.090;2023-12-28T12:44:05;8.90;;;8.60;;
20179;SDS011;10249;48.900;9.090;2023-12-28T12:46:35;8.70;;;8.40;;
20179;SDS011;10249;48.900;9.090;2023-12-28T12:49:02;8.50;;;8.20;;
20179;SDS011;10249;48.900;9.090;2023-12-28T12:51:29;8.37;;;8.07;;
20179;SDS011;10249;48.900;9.090;2023-12-28T12:53:57;8.70;;;8.40;;
20179;SDS011;10249;48.900;9.090;2023-12-28T12:56:24;8.23;;;7.93;;
20179;SDS011;10249;48.900;9.090;2023-12-28T12:58:52;7.80;;;7.60;;
20179;SDS011;10249;48.900;9.090;2023-12-28T13:01:20;7.90;;;7.70;;
20179;SDS011;10249;48.900;9.090;2023-12-28T13:03:47;7.80;;;7.60;;
20179;SDS011;10249;48.900;9.090;2023-12-28T13:06:14;7.70;;;7.50;;
20179;SDS011;10249;48.900;9.090;2023-12-28T13:08:41;8.10;;;7.90;;
20179;SDS011;10249;48.900;9.090;2023-12-28T13:11:08;7.80;;;7.60;;
20179;SDS011;10249;48.900;9.090;2023-12-28T13:13:35;7.87;;;7.67;;
20179;SDS011;10249;48.900;9.090;2023-12-28T13:16:04;7.87;;;7.67;;
20179;SDS011;10249;48.900;9.090;2023-12-28T13:18:31;7.50;;;7.30;;
20179;SDS011;10249;48.900;9.090;2023-12-28T13:21:00;7.50;;;7.30;;
20179;SDS011;10249;48.900;9.090;2023-12-28T13:23:27;7.40;;;7.20;;
20179;SDS011;10249;48.900;9.090;2023-12-28T13:25:54;7.70;;;7.50;;
20179;SDS011;10249;48.900;9.090;2023-12-28T13:28:22;8.47;;;8.07;;
20179;SDS011;10249;48.900;9.090;2023-12-28T13:30:49;7.93;;;7.72;;
20179;SDS011;10249;48.900;9.090;2023-12-28T13:33:22;7.70;;;7.50;;
20179;SDS011;10249;48.900;9.090;2023-12-28T13:35:50;7.13;;;6.93;;
20179;SDS011;10249;48.900;9.090;2023-12-28T13:38:18;7.50;;;7.30;;
20179;SDS011;10249;48.900;9.090;2023-12-28T13:40:45;7.30;;;7.10;;
20179;SDS011;10249;48.900;9.090;2023-12-28T13:43:12;7.70;;;7.50;;
20179;SDS011;10249;48.900;9.090;2023-12-28T13:45:39;7.50;;;7.30;;
20179;SDS011;10249;48.900;9.090;2023-12-28T13:48:06;7.20;;;7.00;;
20179;SDS011;10249;48.900;9.090;2023-12-28T13:50:35;7.10;;;6.90;;
20179;SDS011;10249;48.900;9.090;2023-12-28T13:53:02;7.27;;;7.07;;
20179;SDS011;10249;48.900;9.090;2023-12-28T13:55:31;7.50;;;7.30;;
20179;SDS011;10249;48.900;9.090;2023-12-28T13:57:58;7.60;;;7.40;;
20179;SDS011;10249;48.900;9.090;2023-12-28T14:00:25;7.50;;;7.30;;
20179;SDS011;10249;48.900;9.090;2023-12-28T14:02:53;7.40;;;7.20;;
20179;SDS011;10249;48.900;9.090;2023-12-28T14:05:25;7.50;;;7.30;;
20179;SDS011;10249;48.900;9.090;2023-12-28T14:07:53;7.30;;;7.10;;
20179;SDS011;10249;48.900;9.090;2023-12-28T14:10:21;7.50;;;7.30;;
20179;SDS011;10249;48.900;9.090;2023-12-28T14:12:48;7.57;;;7.37;;
20179;SDS011;10249;48.900;9.090;2023-12-28T14:15:16;7.47;;;7.20;;
20179;SDS011;10249;48.900;9.090;2023-12-28T14:17:43;6.97;;;6.77;;
20179;SDS011;10249;48.900;9.090;2023-12-28T14:20:11;7.20;;;7.00;;
20179;SDS011;10249;48.900;9.090;2023-12-28T14:22:38;7.10;;;6.90;;
20179;SDS011;10249;48.900;9.090;2023-12-28T14:25:07;8.67;;;8.17;;
20179;SDS011;10249;48.900;9.090;2023-12-28T14:27:36;7.00;;;6.80;;
20179;SDS011;10249;48.900;9.090;2023-12-28T14:30:05;7.13;;;6.93;;
20179;SDS011;10249;48.900;9.090;2023-12-28T14:32:36;7.27;;;7.07;;
20179;SDS011;10249;48.900;9.090;2023-12-28T14:35:07;7.50;;;7.30;;
20179;SDS011;10249;48.900;9.090;2023-12-28T14:37:36;7.40;;;7.20;;